Time;durP1;ratioP1;P1;durP2;ratioP2;P2;SDS_P1;SDS_P2;PMS_P1;PMS_P2;Temp;Humidity;BMP_temperature;BMP_pressure;BME280_temperature;BME280_humidity;BME280_pressure;Samples;Min_cycle;Max_cycle;Signal;HPM_P1;HPM_P2
2023/08/31 00:01:33;;;;;;;7.80;6.70;;;;;;;;;;5097519;28;20717;-71
2023/08/31 00:04:00;;;;;;;10.83;5.80;;;;;;;;;;5111443;28;20206;-70
2023/08/31 00:06:28;;;;;;;7.50;6.73;;;;;;;;;;5096724;28;20254;-71
2023/08/31 00:08:55;;;;;;;10.03;6.13;;;;;;;;;;5091193;28;20200;-71
2023/08/31 00:11:22;;;;;;;6.53;5.93;;;;;;;;;;5104877;28;20235;-71
2023/08/31 00:13:49;;;;;;;7.03;6.33;;;;;;;;;;5099468;28;20261;-71
2023/08/31 00:16:15;;;;;;;6.83;6.23;;;;;;;;;;5096136;28;20200;-71
2023/08/31 00:18:44;;;;;;;8.13;7.43;;;;;;;;;;5090993;28;20200;-70
2023/08/31 00:21:14;;;;;;;6.50;5.63;;;;;;;;;;5104349;28;20202;-70
2023/08/31 00:23:42;;;;;;;7.40;6.80;;;;;;;;;;5100627;28;20261;-70
2023/08/31 00:26:09;;;;;;;9.13;5.97;;;;;;;;;;5097269;28;20191;-70
2023/08/31 00:28:36;;;;;;;6.70;6.10;;;;;;;;;;5111382;28;20195;-71
2023/08/31 00:31:04;;;;;;;8.80;7.10;;;;;;;;;;5097285;28;20228;-71
2023/08/31 00:33:33;;;;;;;6.80;6.10;;;;;;;;;;5110751;28;20191;-71
2023/08/31 00:36:01;;;;;;;8.53;6.20;;;;;;;;;;5094519;28;20208;-71
2023/08/31 00:38:28;;;;;;;7.37;6.67;;;;;;;;;;5090545;28;20293;-71
2023/08/31 00:40:57;;;;;;;7.87;5.87;;;;;;;;;;5090476;28;20277;-71
2023/08/31 00:43:24;;;;;;;8.80;6.40;;;;;;;;;;5101981;28;20207;-70
2023/08/31 00:45:54;;;;;;;6.93;6.23;;;;;;;;;;5096876;28;20204;-71
2023/08/31 00:48:21;;;;;;;8.03;7.10;;;;;;;;;;5111295;28;20203;-70
2023/08/31 00:50:48;;;;;;;8.87;6.63;;;;;;;;;;5091884;28;20224;-70
2023/08/31 00:53:16;;;;;;;6.60;6.07;;;;;;;;;;5090683;28;20204;-71
2023/08/31 00:55:43;;;;;;;6.80;6.03;;;;;;;;;;5090727;28;20204;-70
2023/08/31 00:58:11;;;;;;;8.20;7.27;;;;;;;;;;5090422;28;20216;-70
2023/08/31 01:00:45;;;;;;;7.03;6.33;;;;;;;;;;5090312;28;20197;-70
2023/08/31 01:03:14;;;;;;;9.10;6.97;;;;;;;;;;5104033;28;20223;-71
2023/08/31 01:05:48;;;;;;;7.50;6.80;;;;;;;;;;5102676;28;20196;-71
2023/08/31 01:08:24;;;;;;;7.80;7.03;;;;;;;;;;5090488;28;20670;-71
2023/08/31 01:11:00;;;;;;;7.60;6.77;;;;;;;;;;5104247;28;20693;-71
2023/08/31 01:13:31;;;;;;;7.30;6.57;;;;;;;;;;5095903;28;20626;-71
2023/08/31 01:16:04;;;;;;;8.73;6.60;;;;;;;;;;5094107;28;20716;-71
2023/08/31 01:18:35;;;;;;;9.60;7.20;;;;;;;;;;5094503;28;20212;-70
2023/08/31 01:21:10;;;;;;;7.23;6.63;;;;;;;;;;5094443;28;20296;-71
2023/08/31 01:23:52;;;;;;;7.50;6.77;;;;;;;;;;5114797;28;20263;-70
2023/08/31 01:26:19;;;;;;;7.93;7.13;;;;;;;;;;5096460;28;20278;-71
2023/08/31 01:28:46;;;;;;;6.63;6.13;;;;;;;;;;5104637;28;20203;-70
2023/08/31 01:31:13;;;;;;;7.63;6.30;;;;;;;;;;5109432;28;20212;-71
2023/08/31 01:33:39;;;;;;;7.60;6.70;;;;;;;;;;5105028;28;20207;-71
2023/08/31 01:36:21;;;;;;;7.60;6.30;;;;;;;;;;5109886;28;20200;-71
2023/08/31 01:38:54;;;;;;;7.23;6.63;;;;;;;;;;5107480;28;20291;-70
2023/08/31 01:41:22;;;;;;;6.40;5.60;;;;;;;;;;5100359;28;20261;-70
2023/08/31 01:43:50;;;;;;;7.43;6.43;;;;;;;;;;5100292;28;20211;-70
2023/08/31 01:46:17;;;;;;;8.20;6.00;;;;;;;;;;5106108;28;20700;-70
2023/08/31 01:48:44;;;;;;;7.47;6.77;;;;;;;;;;5093367;28;20236;-71
2023/08/31 01:51:11;;;;;;;10.10;6.93;;;;;;;;;;5093365;28;20228;-70
2023/08/31 01:53:38;;;;;;;6.97;6.00;;;;;;;;;;5107403;28;20247;-70
2023/08/31 01:56:06;;;;;;;7.80;6.33;;;;;;;;;;5093254;28;20712;-70
2023/08/31 01:58:33;;;;;;;8.60;6.37;;;;;;;;;;5093710;28;20196;-70
2023/08/31 02:01:00;;;;;;;7.37;6.63;;;;;;;;;;5093059;28;20208;-70
2023/08/31 02:03:27;;;;;;;7.87;7.03;;;;;;;;;;5107035;28;20207;-70
2023/08/31 02:05:53;;;;;;;8.97;8.07;;;;;;;;;;5102474;28;20587;-70
2023/08/31 02:08:20;;;;;;;7.43;6.80;;;;;;;;;;5099877;28;20269;-70
2023/08/31 02:10:47;;;;;;;8.63;7.30;;;;;;;;;;5104084;28;20227;-70
2023/08/31 02:13:16;;;;;;;11.40;7.83;;;;;;;;;;5106832;28;20655;-70
2023/08/31 02:15:43;;;;;;;7.40;6.73;;;;;;;;;;5103276;28;20203;-70
2023/08/31 02:18:10;;;;;;;9.07;7.17;;;;;;;;;;5099689;28;20195;-70
2023/08/31 02:20:37;;;;;;;10.07;7.87;;;;;;;;;;5102059;28;20593;-70
2023/08/31 02:23:04;;;;;;;8.67;7.77;;;;;;;;;;5110309;28;20203;-70
2023/08/31 02:25:30;;;;;;;8.13;7.37;;;;;;;;;;5113429;28;20196;-70
2023/08/31 02:27:57;;;;;;;7.73;6.97;;;;;;;;;;5095023;28;20633;-70
2023/08/31 02:30:25;;;;;;;7.97;7.20;;;;;;;;;;5092730;28;20700;-70
2023/08/31 02:32:52;;;;;;;11.07;8.20;;;;;;;;;;5106437;28;20216;-70
2023/08/31 02:35:19;;;;;;;7.20;6.50;;;;;;;;;;5104675;28;20203;-73
2023/08/31 02:37:45;;;;;;;7.33;6.70;;;;;;;;;;5101059;28;20256;-70
2023/08/31 02:40:12;;;;;;;7.60;6.97;;;;;;;;;;5113025;28;20206;-70
2023/08/31 02:42:39;;;;;;;8.63;6.80;;;;;;;;;;5113057;28;20612;-70
2023/08/31 02:45:07;;;;;;;7.83;7.03;;;;;;;;;;5112733;28;20588;-70
2023/08/31 02:47:36;;;;;;;10.80;7.67;;;;;;;;;;5112725;28;20207;-70
2023/08/31 02:50:03;;;;;;;8.03;7.07;;;;;;;;;;5112453;28;20576;-70
2023/08/31 02:52:29;;;;;;;10.33;7.03;;;;;;;;;;5111898;28;20225;-70
2023/08/31 02:54:56;;;;;;;7.10;6.50;;;;;;;;;;5112853;28;20626;-70
2023/08/31 02:57:23;;;;;;;24.47;13.90;;;;;;;;;;5099095;28;20210;-70
2023/08/31 02:59:52;;;;;;;7.63;6.90;;;;;;;;;;5109188;28;20285;-70
2023/08/31 03:02:19;;;;;;;8.60;6.93;;;;;;;;;;5112382;28;20208;-70
2023/08/31 03:04:47;;;;;;;16.63;6.90;;;;;;;;;;5112333;28;20203;-71
2023/08/31 03:07:15;;;;;;;11.30;6.73;;;;;;;;;;5111839;28;20210;-71
2023/08/31 03:09:42;;;;;;;8.33;7.53;;;;;;;;;;5111904;28;20227;-71
2023/08/31 03:12:08;;;;;;;17.07;6.33;;;;;;;;;;5111670;28;20662;-71
2023/08/31 03:14:35;;;;;;;15.60;6.87;;;;;;;;;;5112247;28;20196;-71
2023/08/31 03:17:03;;;;;;;9.93;7.87;;;;;;;;;;5111085;28;20286;-71
2023/08/31 03:19:30;;;;;;;9.03;7.00;;;;;;;;;;5097271;28;20204;-71
2023/08/31 03:21:58;;;;;;;8.10;6.60;;;;;;;;;;5100600;28;20199;-71
2023/08/31 03:24:24;;;;;;;12.60;6.13;;;;;;;;;;5098423;28;20216;-72
2023/08/31 03:26:51;;;;;;;17.63;7.60;;;;;;;;;;5102391;28;20200;-71
2023/08/31 03:29:18;;;;;;;9.77;6.57;;;;;;;;;;5103728;28;20212;-71
2023/08/31 03:31:45;;;;;;;13.07;6.67;;;;;;;;;;5104306;28;20235;-71
2023/08/31 03:34:11;;;;;;;9.10;7.07;;;;;;;;;;5099525;28;20195;-71
2023/08/31 03:36:38;;;;;;;7.43;6.20;;;;;;;;;;5096323;28;20679;-71
2023/08/31 03:39:06;;;;;;;8.40;7.13;;;;;;;;;;5091499;28;20208;-71
2023/08/31 03:41:35;;;;;;;8.67;6.97;;;;;;;;;;5093684;28;20638;-71
2023/08/31 03:44:02;;;;;;;9.93;6.87;;;;;;;;;;5102525;28;20261;-71
2023/08/31 03:46:29;;;;;;;10.13;6.60;;;;;;;;;;5105070;28;20202;-71
2023/08/31 03:48:55;;;;;;;12.57;7.17;;;;;;;;;;5100966;28;20210;-71
2023/08/31 03:51:22;;;;;;;7.27;6.67;;;;;;;;;;5111356;28;20200;-71
2023/08/31 03:53:49;;;;;;;9.43;6.37;;;;;;;;;;5102016;28;20200;-71
2023/08/31 03:56:17;;;;;;;7.80;7.00;;;;;;;;;;5090645;28;20226;-71
2023/08/31 03:58:44;;;;;;;12.30;6.83;;;;;;;;;;5098669;28;20202;-71
2023/08/31 04:01:11;;;;;;;8.67;7.00;;;;;;;;;;5095750;28;20562;-71
2023/08/31 04:03:37;;;;;;;10.83;6.80;;;;;;;;;;5100345;28;20200;-71
2023/08/31 04:06:05;;;;;;;9.93;7.20;;;;;;;;;;5097237;28;20208;-71
2023/08/31 04:08:32;;;;;;;8.27;6.37;;;;;;;;;;5101826;28;20253;-71
2023/08/31 04:10:59;;;;;;;11.63;6.23;;;;;;;;;;5102013;28;20231;-71
2023/08/31 04:13:28;;;;;;;7.73;7.00;;;;;;;;;;5090833;28;20238;-75
2023/08/31 04:15:54;;;;;;;14.70;7.63;;;;;;;;;;5098749;28;20203;-75
2023/08/31 04:18:22;;;;;;;13.03;7.23;;;;;;;;;;5095667;28;20237;-75
2023/08/31 04:20:51;;;;;;;15.30;7.33;;;;;;;;;;5090757;28;20199;-77
2023/08/31 04:23:17;;;;;;;8.37;7.00;;;;;;;;;;5090765;28;20678;-75
2023/08/31 04:25:44;;;;;;;8.40;6.73;;;;;;;;;;5090842;28;20583;-75
2023/08/31 04:28:11;;;;;;;14.47;7.43;;;;;;;;;;5090766;28;20591;-76
2023/08/31 04:30:40;;;;;;;16.40;6.83;;;;;;;;;;5090695;28;20204;-75
2023/08/31 04:33:07;;;;;;;10.63;7.67;;;;;;;;;;5103856;28;20232;-75
2023/08/31 04:35:34;;;;;;;12.73;7.67;;;;;;;;;;5104127;28;20697;-75
2023/08/31 04:38:00;;;;;;;11.47;7.27;;;;;;;;;;5091165;28;20587;-75
2023/08/31 04:40:28;;;;;;;12.90;6.87;;;;;;;;;;5090518;28;20669;-75
2023/08/31 04:42:55;;;;;;;13.87;7.33;;;;;;;;;;5090854;28;20185;-75
2023/08/31 04:45:22;;;;;;;17.90;7.33;;;;;;;;;;5107943;28;20203;-75
2023/08/31 04:47:51;;;;;;;9.63;6.77;;;;;;;;;;5094804;28;20204;-75
2023/08/31 04:50:18;;;;;;;10.47;7.43;;;;;;;;;;5094948;28;20212;-75
2023/08/31 04:52:45;;;;;;;7.77;7.03;;;;;;;;;;5094354;28;20706;-75
2023/08/31 04:55:14;;;;;;;9.63;6.90;;;;;;;;;;5097425;28;20208;-75
2023/08/31 04:57:41;;;;;;;11.70;7.87;;;;;;;;;;5104821;28;20204;-75
2023/08/31 05:00:12;;;;;;;12.83;6.70;;;;;;;;;;5094651;28;20257;-75
2023/08/31 05:02:39;;;;;;;11.07;8.57;;;;;;;;;;5104684;28;20214;-75
2023/08/31 05:05:08;;;;;;;18.70;7.00;;;;;;;;;;5097198;28;20227;-75
2023/08/31 05:07:35;;;;;;;11.07;7.17;;;;;;;;;;5094295;28;20207;-75
2023/08/31 05:10:03;;;;;;;7.93;6.90;;;;;;;;;;5098736;28;20231;-75
2023/08/31 05:12:30;;;;;;;11.27;8.40;;;;;;;;;;5114487;28;20231;-75
2023/08/31 05:14:56;;;;;;;9.50;6.90;;;;;;;;;;5100890;28;20200;-75
2023/08/31 05:17:23;;;;;;;10.10;8.20;;;;;;;;;;5102000;28;21107;-75
2023/08/31 05:19:50;;;;;;;10.80;7.23;;;;;;;;;;5094477;28;20200;-75
2023/08/31 05:22:18;;;;;;;11.27;7.40;;;;;;;;;;5106620;28;20211;-75
2023/08/31 05:24:45;;;;;;;10.13;6.93;;;;;;;;;;5101061;28;20264;-75
2023/08/31 05:27:12;;;;;;;10.37;8.60;;;;;;;;;;5114200;28;20249;-75
2023/08/31 05:29:38;;;;;;;8.30;7.43;;;;;;;;;;5095825;28;20261;-75
2023/08/31 05:32:06;;;;;;;9.10;6.97;;;;;;;;;;5093657;28;20197;-75
2023/08/31 05:34:37;;;;;;;12.03;7.23;;;;;;;;;;5093924;28;20203;-75
2023/08/31 05:37:05;;;;;;;10.70;6.83;;;;;;;;;;5094103;28;20204;-75
2023/08/31 05:39:34;;;;;;;13.53;8.00;;;;;;;;;;5107525;28;20197;-75
2023/08/31 05:42:00;;;;;;;14.17;8.83;;;;;;;;;;5093805;28;20196;-75
2023/08/31 05:44:27;;;;;;;10.70;7.27;;;;;;;;;;5093906;28;20208;-75
2023/08/31 05:46:54;;;;;;;8.87;8.00;;;;;;;;;;5107666;28;20206;-75
2023/08/31 05:49:20;;;;;;;9.47;7.87;;;;;;;;;;5106660;28;20197;-75
2023/08/31 05:51:47;;;;;;;14.73;8.30;;;;;;;;;;5094165;28;20673;-75
2023/08/31 05:54:14;;;;;;;8.80;6.83;;;;;;;;;;5105978;28;20281;-75
2023/08/31 05:56:42;;;;;;;12.63;7.57;;;;;;;;;;5093902;28;20254;-75
2023/08/31 05:59:09;;;;;;;17.03;7.33;;;;;;;;;;5105402;28;20200;-75
2023/08/31 06:01:36;;;;;;;7.73;6.97;;;;;;;;;;5108318;28;20210;-75
2023/08/31 06:04:03;;;;;;;16.30;8.23;;;;;;;;;;5113409;28;20204;-75
2023/08/31 06:06:32;;;;;;;8.20;6.73;;;;;;;;;;5110980;28;20249;-75
2023/08/31 06:08:59;;;;;;;8.80;6.27;;;;;;;;;;5093174;28;20200;-75
2023/08/31 06:11:25;;;;;;;7.77;5.87;;;;;;;;;;5109099;28;20280;-75
2023/08/31 06:13:54;;;;;;;7.70;5.97;;;;;;;;;;5103664;28;20235;-75
2023/08/31 06:16:20;;;;;;;9.77;6.10;;;;;;;;;;5106250;28;20678;-75
2023/08/31 06:18:47;;;;;;;9.00;6.40;;;;;;;;;;5093289;28;20208;-75
2023/08/31 06:21:14;;;;;;;9.10;6.23;;;;;;;;;;5092758;28;20701;-75
2023/08/31 06:23:40;;;;;;;7.03;6.20;;;;;;;;;;5093244;28;20266;-75
2023/08/31 06:26:07;;;;;;;8.37;6.13;;;;;;;;;;5094120;28;20203;-76
2023/08/31 06:28:34;;;;;;;8.93;6.63;;;;;;;;;;5093110;28;20696;-76
2023/08/31 06:31:04;;;;;;;6.70;5.63;;;;;;;;;;5095121;28;20200;-76
2023/08/31 06:33:30;;;;;;;9.50;5.97;;;;;;;;;;5113113;28;20223;-76
2023/08/31 06:35:57;;;;;;;8.20;6.33;;;;;;;;;;5110115;28;20580;-76
2023/08/31 06:38:24;;;;;;;8.30;6.57;;;;;;;;;;5102377;28;20216;-76
2023/08/31 06:40:51;;;;;;;7.37;6.67;;;;;;;;;;5112868;28;20196;-76
2023/08/31 06:43:17;;;;;;;11.17;5.97;;;;;;;;;;5112950;28;20560;-76
2023/08/31 06:45:44;;;;;;;8.53;5.93;;;;;;;;;;5112809;28;20199;-76
2023/08/31 06:48:12;;;;;;;9.80;6.00;;;;;;;;;;5102332;28;20258;-76
2023/08/31 06:50:39;;;;;;;9.40;6.87;;;;;;;;;;5105409;28;20200;-76
2023/08/31 06:53:06;;;;;;;10.47;6.20;;;;;;;;;;5092780;28;20224;-76
2023/08/31 06:55:33;;;;;;;7.00;6.30;;;;;;;;;;5092239;28;20283;-76
2023/08/31 06:58:00;;;;;;;6.00;5.40;;;;;;;;;;5103110;28;20203;-76
2023/08/31 07:00:27;;;;;;;6.17;5.57;;;;;;;;;;5099361;28;20191;-76
2023/08/31 07:02:53;;;;;;;7.50;5.53;;;;;;;;;;5100835;28;20749;-75
2023/08/31 07:05:27;;;;;;;5.67;5.17;;;;;;;;;;5105834;28;20279;-76
2023/08/31 07:07:55;;;;;;;7.43;5.30;;;;;;;;;;5091994;28;20204;-76
2023/08/31 07:10:22;;;;;;;6.57;5.90;;;;;;;;;;5098990;28;20220;-76
2023/08/31 07:12:48;;;;;;;6.87;5.53;;;;;;;;;;5098944;28;20235;-76
2023/08/31 07:15:15;;;;;;;5.80;5.30;;;;;;;;;;5092171;28;20211;-76
2023/08/31 07:17:42;;;;;;;6.93;5.15;;;;;;;;;;5091873;28;20261;-76
2023/08/31 07:20:10;;;;;;;7.33;5.80;;;;;;;;;;5091802;28;20692;-76
2023/08/31 07:22:41;;;;;;;7.37;5.63;;;;;;;;;;5105800;28;20200;-76
2023/08/31 07:25:08;;;;;;;6.25;5.65;;;;;;;;;;5104772;28;20200;-76
2023/08/31 07:27:35;;;;;;;6.10;5.13;;;;;;;;;;5093188;28;20656;-75
2023/08/31 07:30:03;;;;;;;5.18;4.78;;;;;;;;;;5104144;28;20204;-75
2023/08/31 07:32:32;;;;;;;6.93;4.28;;;;;;;;;;5105062;28;20234;-76
2023/08/31 07:34:59;;;;;;;7.18;4.82;;;;;;;;;;5091498;28;20319;-76
2023/08/31 07:37:26;;;;;;;4.85;4.22;;;;;;;;;;5106868;28;20210;-76
2023/08/31 07:39:54;;;;;;;7.18;5.38;;;;;;;;;;5111739;28;20692;-75
2023/08/31 07:42:21;;;;;;;4.50;4.15;;;;;;;;;;5095515;28;20287;-76
2023/08/31 07:44:48;;;;;;;4.60;4.22;;;;;;;;;;5091378;28;20208;-75
2023/08/31 07:47:14;;;;;;;6.55;5.75;;;;;;;;;;5091320;28;20215;-75
2023/08/31 07:49:42;;;;;;;7.65;4.95;;;;;;;;;;5091182;28;20200;-76
2023/08/31 07:52:09;;;;;;;5.95;4.63;;;;;;;;;;5091152;28;20207;-76
2023/08/31 07:54:36;;;;;;;6.15;5.47;;;;;;;;;;5101554;28;20223;-76
2023/08/31 07:57:04;;;;;;;8.00;4.88;;;;;;;;;;5097686;28;20225;-75
2023/08/31 07:59:32;;;;;;;6.93;4.97;;;;;;;;;;5101378;28;20200;-75
2023/08/31 08:01:59;;;;;;;6.88;5.38;;;;;;;;;;5108545;28;20655;-75
2023/08/31 08:04:26;;;;;;;10.40;5.38;;;;;;;;;;5111377;28;20203;-75
2023/08/31 08:06:54;;;;;;;5.03;4.38;;;;;;;;;;5097707;28;20578;-76
2023/08/31 08:09:20;;;;;;;5.50;4.47;;;;;;;;;;5099999;28;20569;-75
2023/08/31 08:11:47;;;;;;;5.20;4.80;;;;;;;;;;5095226;28;20207;-75
2023/08/31 08:14:15;;;;;;;6.00;5.35;;;;;;;;;;5099444;28;20831;-75
2023/08/31 08:16:42;;;;;;;6.10;5.47;;;;;;;;;;5090756;28;20632;-75
2023/08/31 08:19:09;;;;;;;5.10;4.70;;;;;;;;;;5090411;28;20208;-76
2023/08/31 08:21:36;;;;;;;4.95;4.45;;;;;;;;;;5095948;28;20207;-75
2023/08/31 08:24:03;;;;;;;8.13;5.20;;;;;;;;;;5099194;28;20200;-76
2023/08/31 08:26:30;;;;;;;5.10;4.45;;;;;;;;;;5090480;28;20638;-76
2023/08/31 08:28:57;;;;;;;6.25;5.63;;;;;;;;;;5103490;28;20759;-75
2023/08/31 08:31:25;;;;;;;5.45;4.47;;;;;;;;;;5096572;28;20268;-75
2023/08/31 08:33:52;;;;;;;5.97;5.40;;;;;;;;;;5110881;28;20220;-75
2023/08/31 08:36:18;;;;;;;7.40;4.93;;;;;;;;;;5097275;28;21359;-75
2023/08/31 08:38:45;;;;;;;10.38;5.50;;;;;;;;;;5098322;28;20642;-75
2023/08/31 08:41:12;;;;;;;10.02;5.72;;;;;;;;;;5096921;28;20203;-75
2023/08/31 08:43:44;;;;;;;6.93;5.18;;;;;;;;;;5097804;28;20687;-76
2023/08/31 08:46:10;;;;;;;7.78;4.95;;;;;;;;;;5097529;28;20570;-75
2023/08/31 08:48:39;;;;;;;6.05;5.32;;;;;;;;;;5096906;28;20674;-76
2023/08/31 08:51:07;;;;;;;5.32;4.82;;;;;;;;;;5090534;28;20215;-75
2023/08/31 08:53:34;;;;;;;6.72;5.50;;;;;;;;;;5104187;28;20219;-75
2023/08/31 08:56:01;;;;;;;9.00;5.82;;;;;;;;;;5098539;28;20207;-76
2023/08/31 08:58:28;;;;;;;7.95;4.78;;;;;;;;;;5095721;28;20201;-75
2023/08/31 09:00:56;;;;;;;6.20;4.95;;;;;;;;;;5090466;28;20196;-75
2023/08/31 09:03:24;;;;;;;5.80;5.20;;;;;;;;;;5090352;28;20218;-75
2023/08/31 09:05:52;;;;;;;5.78;5.10;;;;;;;;;;5090827;28;20206;-75
2023/08/31 09:08:26;;;;;;;5.35;4.55;;;;;;;;;;5090572;28;20257;-76
2023/08/31 09:10:53;;;;;;;5.90;5.18;;;;;;;;;;5090164;28;20232;-75
2023/08/31 09:13:20;;;;;;;5.88;5.38;;;;;;;;;;5090623;28;20224;-76
2023/08/31 09:15:48;;;;;;;7.57;5.05;;;;;;;;;;5090347;28;20204;-76
2023/08/31 09:18:16;;;;;;;8.13;6.13;;;;;;;;;;5107816;28;20204;-76
2023/08/31 09:20:47;;;;;;;7.32;5.03;;;;;;;;;;5099698;28;20634;-75
2023/08/31 09:23:16;;;;;;;5.20;4.70;;;;;;;;;;5090486;28;20197;-75
2023/08/31 09:25:44;;;;;;;7.50;5.60;;;;;;;;;;5102850;28;20746;-75
2023/08/31 09:28:13;;;;;;;6.30;5.00;;;;;;;;;;5090612;28;20197;-76
2023/08/31 09:30:41;;;;;;;5.93;5.38;;;;;;;;;;5105791;28;20286;-76
2023/08/31 09:33:09;;;;;;;9.00;5.03;;;;;;;;;;5094062;28;20195;-76
2023/08/31 09:35:40;;;;;;;7.28;5.30;;;;;;;;;;5107529;28;20299;-76
2023/08/31 09:38:09;;;;;;;11.82;6.38;;;;;;;;;;5093849;28;20243;-76
2023/08/31 09:40:37;;;;;;;7.90;5.13;;;;;;;;;;5108480;28;20203;-76
2023/08/31 09:43:04;;;;;;;6.88;5.18;;;;;;;;;;5105115;28;20196;-76
2023/08/31 09:45:32;;;;;;;8.15;5.25;;;;;;;;;;5107773;28;20211;-75
2023/08/31 09:48:00;;;;;;;7.07;5.40;;;;;;;;;;5102885;28;20237;-75
2023/08/31 09:50:27;;;;;;;6.35;5.05;;;;;;;;;;5097410;28;20597;-76
2023/08/31 09:52:57;;;;;;;6.55;5.95;;;;;;;;;;5093550;28;20196;-75
2023/08/31 09:55:25;;;;;;;6.45;5.28;;;;;;;;;;5093464;28;20643;-76
2023/08/31 09:57:54;;;;;;;7.25;5.05;;;;;;;;;;5104009;28;20204;-75
2023/08/31 10:00:21;;;;;;;6.05;5.22;;;;;;;;;;5099968;28;20199;-75
2023/08/31 10:02:48;;;;;;;6.60;4.57;;;;;;;;;;5102553;28;20258;-75
2023/08/31 10:05:15;;;;;;;5.38;4.85;;;;;;;;;;5098295;28;20223;-76
2023/08/31 10:07:42;;;;;;;6.70;4.65;;;;;;;;;;5113868;28;20210;-75
2023/08/31 10:10:10;;;;;;;6.65;5.38;;;;;;;;;;5113290;28;20711;-75
2023/08/31 10:12:36;;;;;;;7.35;4.80;;;;;;;;;;5113317;28;20207;-75
2023/08/31 10:15:06;;;;;;;10.50;4.93;;;;;;;;;;5099581;28;20230;-75
2023/08/31 10:17:33;;;;;;;7.25;4.65;;;;;;;;;;5113055;28;20206;-75
2023/08/31 10:20:00;;;;;;;7.55;4.40;;;;;;;;;;5093607;28;20193;-75
2023/08/31 10:22:27;;;;;;;6.53;5.25;;;;;;;;;;5093114;28;20211;-75
2023/08/31 10:25:00;;;;;;;5.05;4.60;;;;;;;;;;5106627;28;20220;-75
2023/08/31 10:27:28;;;;;;;6.65;5.15;;;;;;;;;;5093024;28;20566;-75
2023/08/31 10:29:55;;;;;;;9.57;5.68;;;;;;;;;;5099771;28;20214;-75
2023/08/31 10:32:23;;;;;;;6.30;5.22;;;;;;;;;;5099151;28;20249;-75
2023/08/31 10:35:08;;;;;;;9.27;5.38;;;;;;;;;;5099867;28;20632;-77
2023/08/31 10:37:35;;;;;;;8.85;5.78;;;;;;;;;;5099173;28;20203;-78
2023/08/31 10:40:11;;;;;;;9.10;5.03;;;;;;;;;;5103335;28;20202;-81
2023/08/31 10:42:45;;;;;;;5.93;5.30;;;;;;;;;;5105653;28;20583;-79
2023/08/31 10:45:12;;;;;;;9.03;5.90;;;;;;;;;;5104731;28;20682;-79
2023/08/31 10:47:41;;;;;;;7.13;5.87;;;;;;;;;;5093251;28;20200;-79
2023/08/31 10:50:17;;;;;;;7.00;6.10;;;;;;;;;;5105121;28;20206;-78
2023/08/31 10:52:45;;;;;;;6.63;5.97;;;;;;;;;;5092391;28;20740;-78
2023/08/31 10:55:12;;;;;;;7.00;6.27;;;;;;;;;;5092300;28;20255;-77
2023/08/31 10:57:40;;;;;;;7.77;6.27;;;;;;;;;;5099792;28;20207;-77
2023/08/31 11:00:08;;;;;;;9.43;6.43;;;;;;;;;;5098070;28;20205;-77
2023/08/31 11:02:36;;;;;;;7.67;5.83;;;;;;;;;;5092390;28;20200;-77
2023/08/31 11:05:08;;;;;;;17.15;6.28;;;;;;;;;;5105545;28;20217;-77
2023/08/31 11:07:35;;;;;;;7.03;5.83;;;;;;;;;;5101362;28;20207;-77
2023/08/31 11:10:23;;;;;;;8.70;6.75;;;;;;;;;;5096102;28;20232;-77
2023/08/31 11:12:52;;;;;;;6.30;5.70;;;;;;;;;;5087653;28;20603;-77
2023/08/31 11:15:20;;;;;;;8.40;5.85;;;;;;;;;;5111452;28;20261;-77
2023/08/31 11:17:47;;;;;;;9.95;6.05;;;;;;;;;;5098938;28;20201;-77
2023/08/31 11:20:16;;;;;;;6.93;6.03;;;;;;;;;;5092214;28;20253;-77
2023/08/31 11:22:44;;;;;;;7.63;6.47;;;;;;;;;;5105020;28;20203;-77
2023/08/31 11:25:14;;;;;;;8.23;6.03;;;;;;;;;;5099559;28;20203;-77
2023/08/31 11:27:41;;;;;;;6.28;4.93;;;;;;;;;;5098394;28;20593;-77
2023/08/31 11:30:13;;;;;;;7.28;6.03;;;;;;;;;;5103333;28;20760;-77
2023/08/31 11:32:46;;;;;;;7.93;5.28;;;;;;;;;;5105506;28;20211;-77
2023/08/31 11:35:13;;;;;;;9.15;5.57;;;;;;;;;;5091685;28;20289;-77
2023/08/31 11:37:42;;;;;;;6.35;5.60;;;;;;;;;;5091299;28;20200;-77
2023/08/31 11:40:12;;;;;;;9.13;6.18;;;;;;;;;;5102959;28;20713;-77
2023/08/31 11:42:38;;;;;;;6.32;5.78;;;;;;;;;;5111440;28;20192;-78
2023/08/31 11:45:07;;;;;;;6.40;5.70;;;;;;;;;;5111369;28;20677;-77
2023/08/31 11:47:34;;;;;;;6.03;5.43;;;;;;;;;;5092924;28;20197;-78
2023/08/31 11:50:04;;;;;;;6.78;5.00;;;;;;;;;;5104226;28;20203;-78
2023/08/31 11:52:32;;;;;;;5.85;5.03;;;;;;;;;;5091028;28;20201;-78
2023/08/31 11:55:00;;;;;;;5.63;5.10;;;;;;;;;;5091079;28;20761;-78
2023/08/31 11:57:28;;;;;;;5.10;4.70;;;;;;;;;;5091174;28;20204;-78
2023/08/31 11:59:56;;;;;;;6.25;4.85;;;;;;;;;;5105009;28;20261;-77
2023/08/31 12:02:23;;;;;;;5.85;5.35;;;;;;;;;;5099040;28;20203;-77
2023/08/31 12:04:49;;;;;;;6.15;5.25;;;;;;;;;;5097313;28;20204;-77
2023/08/31 12:07:18;;;;;;;6.10;5.10;;;;;;;;;;5098174;28;20207;-77
2023/08/31 12:09:45;;;;;;;8.18;5.40;;;;;;;;;;5096705;28;20224;-77
2023/08/31 12:12:14;;;;;;;5.70;5.20;;;;;;;;;;5098754;28;20673;-77
2023/08/31 12:14:44;;;;;;;5.65;5.15;;;;;;;;;;5097056;28;20223;-77
2023/08/31 12:17:10;;;;;;;6.20;5.60;;;;;;;;;;5102375;28;20612;-77
2023/08/31 12:19:38;;;;;;;6.60;5.88;;;;;;;;;;5093219;28;20227;-77
2023/08/31 12:22:05;;;;;;;6.65;6.05;;;;;;;;;;5111075;28;20202;-77
2023/08/31 12:24:38;;;;;;;7.88;5.72;;;;;;;;;;5108324;28;20203;-77
2023/08/31 12:27:06;;;;;;;7.22;5.95;;;;;;;;;;5090783;28;20212;-78
2023/08/31 12:29:36;;;;;;;7.25;5.10;;;;;;;;;;5108405;28;20200;-77
2023/08/31 12:32:03;;;;;;;6.38;5.78;;;;;;;;;;5110719;28;20203;-77
2023/08/31 12:34:34;;;;;;;6.68;5.75;;;;;;;;;;5105989;28;20228;-76
2023/08/31 12:37:02;;;;;;;7.18;6.13;;;;;;;;;;5102729;28;20203;-77
2023/08/31 12:39:29;;;;;;;5.88;5.20;;;;;;;;;;5110784;28;20590;-77
2023/08/31 12:41:56;;;;;;;7.45;5.43;;;;;;;;;;5098751;28;20204;-77
2023/08/31 12:44:23;;;;;;;7.35;5.60;;;;;;;;;;5104430;28;20253;-77
2023/08/31 12:46:51;;;;;;;6.43;5.80;;;;;;;;;;5103378;28;20200;-77
2023/08/31 12:49:20;;;;;;;5.82;4.97;;;;;;;;;;5110758;28;20588;-76
2023/08/31 12:51:46;;;;;;;6.32;5.70;;;;;;;;;;5111010;28;20701;-76
2023/08/31 12:54:13;;;;;;;5.10;4.55;;;;;;;;;;5104310;28;20707;-76
2023/08/31 12:56:42;;;;;;;7.88;4.88;;;;;;;;;;5104269;28;20203;-76
2023/08/31 12:59:08;;;;;;;5.43;4.95;;;;;;;;;;5090581;28;20200;-76
2023/08/31 13:01:37;;;;;;;7.30;4.78;;;;;;;;;;5104148;28;20623;-77
2023/08/31 13:04:06;;;;;;;6.70;4.82;;;;;;;;;;5103743;28;20208;-76
2023/08/31 13:06:32;;;;;;;5.07;4.68;;;;;;;;;;5094073;28;20204;-77
2023/08/31 13:08:59;;;;;;;5.35;4.95;;;;;;;;;;5094292;28;20203;-77
2023/08/31 13:11:26;;;;;;;6.85;6.35;;;;;;;;;;5109799;28;20276;-77
2023/08/31 13:13:53;;;;;;;6.93;5.50;;;;;;;;;;5106438;28;20745;-77
2023/08/31 13:16:22;;;;;;;6.53;4.72;;;;;;;;;;5107628;28;20226;-77
2023/08/31 13:18:48;;;;;;;5.43;4.90;;;;;;;;;;5103027;28;20199;-77
2023/08/31 13:21:16;;;;;;;5.32;4.88;;;;;;;;;;5100873;28;20204;-78
2023/08/31 13:23:44;;;;;;;5.03;4.63;;;;;;;;;;5105285;28;20203;-77
2023/08/31 13:26:10;;;;;;;6.55;5.95;;;;;;;;;;5094106;28;20200;-77
2023/08/31 13:28:37;;;;;;;5.22;4.72;;;;;;;;;;5094180;28;20245;-77
2023/08/31 13:31:04;;;;;;;5.18;4.78;;;;;;;;;;5093594;28;20592;-77
2023/08/31 13:33:32;;;;;;;6.75;4.97;;;;;;;;;;5094119;28;20208;-77
2023/08/31 13:35:59;;;;;;;6.60;5.20;;;;;;;;;;5097112;28;20231;-77
2023/08/31 13:38:27;;;;;;;5.68;5.18;;;;;;;;;;5103106;28;20196;-77
2023/08/31 13:40:56;;;;;;;6.33;5.73;;;;;;;;;;5111542;28;20722;-77
2023/08/31 13:43:23;;;;;;;7.33;5.20;;;;;;;;;;5102475;28;20733;-77
2023/08/31 13:45:50;;;;;;;9.80;6.13;;;;;;;;;;5106863;28;20287;-77
2023/08/31 13:48:17;;;;;;;6.67;5.33;;;;;;;;;;5094098;28;20200;-77
2023/08/31 13:50:44;;;;;;;6.07;4.43;;;;;;;;;;5098851;28;20211;-77
2023/08/31 13:53:10;;;;;;;5.37;4.90;;;;;;;;;;5101125;28;20204;-77
2023/08/31 13:55:38;;;;;;;7.27;5.00;;;;;;;;;;5107143;28;20242;-77
2023/08/31 13:58:06;;;;;;;8.53;4.50;;;;;;;;;;5093574;28;20318;-76
2023/08/31 14:00:33;;;;;;;5.13;4.70;;;;;;;;;;5113594;28;20200;-76
2023/08/31 14:03:02;;;;;;;8.73;4.63;;;;;;;;;;5100265;28;20234;-76
2023/08/31 14:05:29;;;;;;;6.27;5.03;;;;;;;;;;5101049;28;20696;-77
2023/08/31 14:07:57;;;;;;;4.37;3.97;;;;;;;;;;5099469;28;20206;-76
2023/08/31 14:10:24;;;;;;;6.03;4.30;;;;;;;;;;5113894;28;20227;-76
2023/08/31 14:12:53;;;;;;;5.10;4.60;;;;;;;;;;5099123;28;20200;-76
2023/08/31 14:15:20;;;;;;;4.67;4.27;;;;;;;;;;5100946;28;20230;-77
2023/08/31 14:17:48;;;;;;;6.30;4.90;;;;;;;;;;5097686;28;20299;-77
2023/08/31 14:20:15;;;;;;;5.27;4.77;;;;;;;;;;5093526;28;20662;-76
2023/08/31 14:22:42;;;;;;;5.90;4.73;;;;;;;;;;5106272;28;20211;-76
2023/08/31 14:25:11;;;;;;;8.10;4.17;;;;;;;;;;5093022;28;20227;-76
2023/08/31 14:27:37;;;;;;;5.57;4.30;;;;;;;;;;5095209;28;20639;-77
2023/08/31 14:30:07;;;;;;;5.93;4.67;;;;;;;;;;5113447;28;20575;-76
2023/08/31 14:32:33;;;;;;;6.53;4.10;;;;;;;;;;5099211;28;20227;-77
2023/08/31 14:35:00;;;;;;;7.00;4.80;;;;;;;;;;5113582;28;20688;-76
2023/08/31 14:37:27;;;;;;;9.70;4.50;;;;;;;;;;5097198;28;20207;-77
2023/08/31 14:39:54;;;;;;;4.60;4.20;;;;;;;;;;5092873;28;20200;-76
2023/08/31 14:42:21;;;;;;;6.35;4.00;;;;;;;;;;5094769;28;20200;-76
2023/08/31 14:44:48;;;;;;;5.30;4.37;;;;;;;;;;5103606;28;20207;-76